This is the latest recevied weather packets stored in our database for station/object AI4Y. If no packets are shown the sender has not sent any weather packets the latest 10 day(s).
| Time | Temp. | Humidity | Pressure | Rain* | Wind** | Luminosity | Snow |
|---|---|---|---|---|---|---|---|
| 1777760436 | 16.11° C | 38% | 1012.4 hPa | 0 mm | - | 377 W/m² | - |
| 1777754418 | 16.67° C | 37% | 1011.4 hPa | 0 mm | - | 277 W/m² | - |
| 1777753818 | 17.22° C | 37% | 1011.5 hPa | 0 mm | - | 306 W/m² | - |
| 1777749616 | 18.33° C | 37% | 1011.6 hPa | 0 mm | - | 879 W/m² | - |
| 1777749056 | 18.33° C | 37% | 1011.8 hPa | 0 mm | - | 961 W/m² | - |
| 1777748416 | 17.78° C | 38% | 1011.9 hPa | 0 mm | - | 995 W/m² | - |
| 1777745417 | 16.67° C | 39% | 1012.5 hPa | 0 mm | - | 1047 W/m² | - |
| 1777743637 | 16.11° C | 40% | 1013.2 hPa | 0 mm | - | 463 W/m² | - |
| 1777741818 | 15.56° C | 43% | 1013.7 hPa | 0 mm | - | 748 W/m² | - |
| 1777741218 | 15° C | 43% | 1013.8 hPa | 0 mm | - | 718 W/m² | - |
| 1777739418 | 15° C | 43% | 1014.3 hPa | 0 mm | - | 843 W/m² | - |
| 1777737016 | 13.89° C | 46% | 1014.8 hPa | 0 mm | - | 596 W/m² | - |
| 1777734036 | 11.67° C | 52% | 1014.7 hPa | 0 mm | - | 327 W/m² | - |
| 1777731017 | 11.11° C | 53% | 1014.7 hPa | 0 mm | - | 350 W/m² | - |
| 1777725618 | 10° C | 54% | 1014.5 hPa | 0 mm | - | 174 W/m² | - |
| 1777725015 | 10° C | 54% | 1014.6 hPa | 0 mm | - | 130 W/m² | - |
| 1777722616 | 10° C | 53% | 1014.1 hPa | 0 mm | - | 68 W/m² | - |
| 1777722016 | 10° C | 53% | 1014 hPa | 0 mm | - | 46 W/m² | - |
| 1777720217 | 10° C | 56% | 1013.7 hPa | 0 mm | - | 33 W/m² | - |
| 1777719037 | 10° C | 55% | 1013.7 hPa | 0 mm | - | 19 W/m² | - |
| 1777718439 | 10° C | 54% | 1013.7 hPa | 0 mm | - | 8 W/m² | - |
| 1777717817 | 10° C | 54% | 1013.7 hPa | 0 mm | - | 3 W/m² | - |
| 1777716617 | 10.56° C | 55% | 1013.9 hPa | 0 mm | - | 0 W/m² | - |
| 1777716018 | 10.56° C | 55% | 1014 hPa | 0 mm | - | 0 W/m² | - |
| 1777713618 | 10.56° C | 63% | 1013.8 hPa | 0 mm | - | 0 W/m² | - |
* Rain latest hour (hover to see other rain measurements)
** Current wind speed in m/s (hover to see current wind gust speed)